createdAt,value
2024-03-13T00:00:11.178Z,84.57
2024-03-13T00:03:05.709Z,84.73
2024-03-13T00:05:32.164Z,77.33
2024-03-13T00:07:59.470Z,77.20
2024-03-13T00:10:27.034Z,86.20
2024-03-13T00:12:54.871Z,82.80
2024-03-13T00:15:21.982Z,83.73
2024-03-13T00:17:48.844Z,86.37
2024-03-13T00:20:15.435Z,86.00
2024-03-13T00:22:42.385Z,85.87
2024-03-13T00:25:12.283Z,81.03
2024-03-13T00:27:40.045Z,82.73
2024-03-13T00:30:08.993Z,77.63
2024-03-13T00:32:36.802Z,79.03
2024-03-13T00:35:05.303Z,74.50
2024-03-13T00:37:32.193Z,73.77
2024-03-13T00:39:58.768Z,77.67
2024-03-13T00:42:26.391Z,83.00
2024-03-13T00:44:53.678Z,80.83
2024-03-13T00:47:23.376Z,74.67
2024-03-13T00:49:53.041Z,73.80
2024-03-13T00:52:20.613Z,69.33
2024-03-13T00:54:47.346Z,58.17
2024-03-13T00:57:17.948Z,62.20
2024-03-13T00:59:45.433Z,71.67
2024-03-13T01:02:13.094Z,70.10
2024-03-13T01:04:39.923Z,70.33
2024-03-13T01:07:10.108Z,69.43
2024-03-13T01:09:38.938Z,73.43
2024-03-13T01:12:06.411Z,71.70
2024-03-13T01:14:33.155Z,70.97
2024-03-13T01:17:02.143Z,61.90
2024-03-13T01:19:31.114Z,61.43
2024-03-13T01:22:13.320Z,72.47
2024-03-13T01:24:39.923Z,63.83
2024-03-13T01:27:07.184Z,66.20
2024-03-13T01:29:33.559Z,65.33
2024-03-13T01:32:01.378Z,64.80
2024-03-13T01:34:28.098Z,60.57
2024-03-13T01:37:13.756Z,63.17
2024-03-13T01:39:40.384Z,65.73
2024-03-13T01:42:25.961Z,68.10
2024-03-13T01:45:27.385Z,72.63
2024-03-13T01:48:18.046Z,69.90
2024-03-13T01:51:05.172Z,64.10
2024-03-13T01:53:53.259Z,64.40
2024-03-13T01:56:27.379Z,65.07
2024-03-13T01:59:20.636Z,63.50
2024-03-13T02:02:05.636Z,59.67
2024-03-13T02:04:32.679Z,60.27
2024-03-13T02:07:00.350Z,59.60
2024-03-13T02:09:26.885Z,56.10
2024-03-13T02:11:54.127Z,58.37
2024-03-13T02:14:20.691Z,66.60
2024-03-13T02:16:52.306Z,66.60
2024-03-13T02:19:19.094Z,69.03
2024-03-13T02:21:47.785Z,85.17
2024-03-13T02:24:14.316Z,93.37
2024-03-13T02:26:43.672Z,92.93
2024-03-13T02:29:12.360Z,78.93
2024-03-13T02:31:39.157Z,73.53
2024-03-13T02:34:06.366Z,70.63
2024-03-13T02:36:34.179Z,61.87
2024-03-13T02:39:01.919Z,67.67
2024-03-13T02:41:28.680Z,93.00
2024-03-13T02:43:57.977Z,119.70
2024-03-13T02:46:26.112Z,102.17
2024-03-13T02:48:53.383Z,90.80
2024-03-13T02:51:20.836Z,76.63
2024-03-13T02:53:48.959Z,74.10
2024-03-13T02:56:15.624Z,62.03
2024-03-13T02:58:42.857Z,72.20
2024-03-13T03:01:09.711Z,69.30
2024-03-13T03:03:36.581Z,65.70
2024-03-13T03:06:04.048Z,57.83
2024-03-13T03:08:32.955Z,59.53
2024-03-13T03:11:04.024Z,66.07
2024-03-13T03:13:31.038Z,65.47
2024-03-13T03:16:00.169Z,59.03
2024-03-13T03:18:27.150Z,57.43
2024-03-13T03:20:54.445Z,52.07
2024-03-13T03:23:21.589Z,53.63
2024-03-13T03:25:48.556Z,48.50
2024-03-13T03:28:17.163Z,53.53
2024-03-13T03:30:47.120Z,55.87
2024-03-13T03:33:13.863Z,66.33
2024-03-13T03:35:40.778Z,59.27
2024-03-13T03:38:07.820Z,50.40
2024-03-13T03:40:34.805Z,47.67
2024-03-13T03:43:01.589Z,48.33
2024-03-13T03:45:29.633Z,54.73
2024-03-13T03:48:01.705Z,46.13
2024-03-13T03:50:33.923Z,48.17
2024-03-13T03:53:01.015Z,47.50
2024-03-13T03:55:27.736Z,42.70
2024-03-13T03:57:55.433Z,42.27
2024-03-13T04:00:23.240Z,49.60
2024-03-13T04:02:52.098Z,49.40
2024-03-13T04:05:19.398Z,45.93
2024-03-13T04:07:46.151Z,46.07
2024-03-13T04:10:13.673Z,45.83
2024-03-13T04:12:40.466Z,43.37
2024-03-13T04:15:07.728Z,83.17
2024-03-13T04:17:35.947Z,100.03
2024-03-13T04:20:02.702Z,78.23
2024-03-13T04:22:32.481Z,84.07
2024-03-13T04:24:58.909Z,75.73
2024-03-13T04:27:28.339Z,56.30
2024-03-13T04:29:55.908Z,57.47
2024-03-13T04:32:23.333Z,48.83
2024-03-13T04:34:49.644Z,44.87
2024-03-13T04:37:16.807Z,45.43
2024-03-13T04:39:43.603Z,52.07
2024-03-13T04:42:10.531Z,47.00
2024-03-13T04:44:36.945Z,45.90
2024-03-13T04:47:03.810Z,48.47
2024-03-13T04:49:30.188Z,47.00
2024-03-13T04:51:56.936Z,36.97
2024-03-13T04:54:23.387Z,39.83
2024-03-13T04:56:50.031Z,35.33
2024-03-13T04:59:16.435Z,39.60
2024-03-13T05:01:43.255Z,38.00
2024-03-13T05:04:10.005Z,33.47
2024-03-13T05:06:36.708Z,30.83
2024-03-13T05:09:04.167Z,26.93
2024-03-13T05:11:30.894Z,32.43
2024-03-13T05:13:57.309Z,26.27
2024-03-13T05:16:24.280Z,27.27
2024-03-13T05:18:51.002Z,27.80
2024-03-13T05:21:19.054Z,27.23
2024-03-13T05:23:46.589Z,25.50
2024-03-13T05:26:13.532Z,23.87
2024-03-13T05:28:40.549Z,24.73
2024-03-13T05:31:10.737Z,29.70
2024-03-13T05:33:40.841Z,25.33
2024-03-13T05:36:10.507Z,26.77
2024-03-13T05:38:36.971Z,26.00
2024-03-13T05:41:03.761Z,24.80
2024-03-13T05:43:30.538Z,26.07
2024-03-13T05:45:57.314Z,27.93
2024-03-13T05:48:23.887Z,24.47
2024-03-13T05:50:50.588Z,33.33
2024-03-13T05:53:17.546Z,31.60
2024-03-13T05:55:44.442Z,30.40
2024-03-13T05:58:11.499Z,30.73
2024-03-13T06:00:41.796Z,29.47
2024-03-13T06:03:08.486Z,29.30
2024-03-13T06:05:35.946Z,28.57
2024-03-13T06:08:02.446Z,30.77
2024-03-13T06:10:31.150Z,30.40
2024-03-13T06:12:57.818Z,31.20
2024-03-13T06:15:24.556Z,33.50
2024-03-13T06:17:50.962Z,33.77
2024-03-13T06:20:21.610Z,31.37
2024-03-13T06:22:48.805Z,38.03
2024-03-13T06:25:16.697Z,31.27
2024-03-13T06:27:43.243Z,27.80
2024-03-13T06:30:10.645Z,25.47
2024-03-13T06:32:37.258Z,31.13
2024-03-13T06:35:07.253Z,30.30
2024-03-13T06:37:34.154Z,26.80
2024-03-13T06:40:01.276Z,37.43
2024-03-13T06:42:28.096Z,24.63
2024-03-13T06:44:55.699Z,25.33
2024-03-13T06:47:22.480Z,23.80
2024-03-13T06:49:49.218Z,25.23
2024-03-13T06:52:16.084Z,26.27
2024-03-13T06:54:44.546Z,26.73
2024-03-13T06:57:11.107Z,24.53
2024-03-13T06:59:39.798Z,23.10
2024-03-13T07:02:07.120Z,25.23
2024-03-13T07:04:34.067Z,27.13
2024-03-13T07:07:01.249Z,27.60
2024-03-13T07:09:28.438Z,24.93
2024-03-13T07:11:58.079Z,31.17
2024-03-13T07:14:25.565Z,26.00
2024-03-13T07:16:51.957Z,25.67
2024-03-13T07:19:20.440Z,26.63
2024-03-13T07:21:47.627Z,29.53
2024-03-13T07:24:14.375Z,29.67
2024-03-13T07:26:42.540Z,31.30
2024-03-13T07:29:09.830Z,25.77
2024-03-13T07:31:39.931Z,30.87
2024-03-13T07:34:10.267Z,29.10
2024-03-13T07:36:38.577Z,28.53
2024-03-13T07:39:10.810Z,29.17
2024-03-13T07:41:37.434Z,33.17
2024-03-13T07:44:04.417Z,30.23
2024-03-13T07:46:30.923Z,31.87
2024-03-13T07:48:57.998Z,31.23
2024-03-13T07:51:24.810Z,26.77
2024-03-13T07:53:51.736Z,29.60
2024-03-13T07:56:20.916Z,31.90
2024-03-13T07:58:49.528Z,34.40
2024-03-13T08:01:17.030Z,31.37
2024-03-13T08:03:43.780Z,27.17
2024-03-13T09:06:50.082Z,25.20
2024-03-13T09:09:25.658Z,25.80
2024-03-13T09:11:52.474Z,26.23
2024-03-13T09:14:19.663Z,23.07
2024-03-13T09:16:48.953Z,23.37
2024-03-13T09:19:15.851Z,26.70
2024-03-13T09:21:46.751Z,23.63
2024-03-13T09:24:15.078Z,24.70
2024-03-13T09:26:42.152Z,26.13
2024-03-13T09:29:09.105Z,25.13
2024-03-13T09:31:39.728Z,23.73
2024-03-13T09:34:07.688Z,24.23
2024-03-13T09:36:34.644Z,22.67
2024-03-13T09:39:01.718Z,25.10
2024-03-13T09:41:28.345Z,21.33
2024-03-13T09:43:55.493Z,24.73
2024-03-13T09:46:22.358Z,29.67
2024-03-13T09:48:49.810Z,27.40
2024-03-13T09:51:16.488Z,28.23
2024-03-13T09:53:46.484Z,24.70
2024-03-13T09:56:16.047Z,22.30
2024-03-13T09:58:47.332Z,24.57
2024-03-13T10:01:20.222Z,20.53
2024-03-13T10:03:58.148Z,25.70
2024-03-13T10:06:26.456Z,24.63
2024-03-13T10:08:54.857Z,22.83
2024-03-13T10:11:24.071Z,25.77
2024-03-13T10:13:52.102Z,25.93
2024-03-13T10:16:24.910Z,22.63
2024-03-13T10:18:53.649Z,20.17
2024-03-13T10:21:28.200Z,20.93
2024-03-13T10:23:59.667Z,20.10
2024-03-13T10:26:27.752Z,23.00
2024-03-13T10:28:54.699Z,24.47
2024-03-13T10:31:21.700Z,22.13
2024-03-13T10:33:50.075Z,22.27
2024-03-13T10:36:18.018Z,20.60
2024-03-13T10:38:47.552Z,23.13
2024-03-13T10:41:14.591Z,22.80
2024-03-13T10:43:44.508Z,22.60
2024-03-13T10:46:12.105Z,20.30
2024-03-13T10:48:42.237Z,21.00
2024-03-13T10:51:13.436Z,21.83
2024-03-13T10:53:40.672Z,23.73
2024-03-13T10:56:14.570Z,23.03
2024-03-13T10:58:43.615Z,24.73
2024-03-13T11:01:21.720Z,24.53
2024-03-13T11:04:00.441Z,24.00
2024-03-13T11:06:28.561Z,23.23
2024-03-13T11:08:59.392Z,24.37
2024-03-13T11:11:28.528Z,22.57
2024-03-13T11:13:58.762Z,26.93
2024-03-13T11:16:29.906Z,23.63
2024-03-13T11:18:58.668Z,25.93
2024-03-13T11:21:38.348Z,29.10
2024-03-13T11:24:08.062Z,26.47
2024-03-13T11:26:41.029Z,26.07
2024-03-13T11:29:12.405Z,27.20
2024-03-13T11:31:42.004Z,23.93
2024-03-13T11:34:12.837Z,25.30
2024-03-13T11:36:40.266Z,23.77
2024-03-13T11:39:15.967Z,23.87
2024-03-13T11:41:43.758Z,26.43
2024-03-13T11:44:15.726Z,27.73
2024-03-13T11:46:48.465Z,23.30
2024-03-13T11:49:16.270Z,25.17
2024-03-13T11:52:05.191Z,29.77
2024-03-13T11:54:35.450Z,30.60
2024-03-13T11:57:05.503Z,29.00
2024-03-13T11:59:42.396Z,31.43
2024-03-13T12:02:32.084Z,30.80
2024-03-13T12:05:07.077Z,29.33
2024-03-13T12:07:37.016Z,27.17
2024-03-13T12:10:04.161Z,30.10
2024-03-13T12:12:31.062Z,29.17
2024-03-13T12:14:57.787Z,31.53
2024-03-13T12:17:24.785Z,34.17
2024-03-13T12:19:51.940Z,29.83
2024-03-13T12:22:20.418Z,30.40
2024-03-13T12:24:47.896Z,30.03
2024-03-13T12:27:14.597Z,31.43
2024-03-13T12:29:42.169Z,32.53
2024-03-13T12:32:09.717Z,29.60
2024-03-13T12:34:36.976Z,33.47
2024-03-13T12:37:08.282Z,36.30
2024-03-13T12:39:37.106Z,34.33
2024-03-13T12:42:05.287Z,29.73
2024-03-13T12:44:32.777Z,31.77
2024-03-13T12:46:59.141Z,31.90
2024-03-13T12:49:26.427Z,32.43
2024-03-13T12:51:55.446Z,31.83
2024-03-13T12:54:26.217Z,29.40
2024-03-13T12:56:55.472Z,29.57
2024-03-13T12:59:22.559Z,32.10
2024-03-13T13:01:50.327Z,29.67
2024-03-13T13:04:18.703Z,32.60
2024-03-13T13:06:48.892Z,29.10
2024-03-13T13:09:15.906Z,30.27
2024-03-13T13:11:45.516Z,29.40
2024-03-13T13:14:13.025Z,28.07
2024-03-13T13:16:40.446Z,33.23
2024-03-13T13:19:11.322Z,36.70
2024-03-13T13:21:38.670Z,29.07
2024-03-13T13:24:06.504Z,32.20
2024-03-13T13:26:33.235Z,32.47
2024-03-13T13:31:29.581Z,31.90
2024-03-13T13:33:56.741Z,29.20
2024-03-13T13:36:23.467Z,30.60
2024-03-13T13:38:50.485Z,31.07
2024-03-13T13:41:16.950Z,33.70
2024-03-13T13:43:44.107Z,30.07
2024-03-13T13:46:11.156Z,29.03
2024-03-13T13:48:38.820Z,30.20
2024-03-13T13:51:05.306Z,35.50
2024-03-13T13:53:33.666Z,30.00
2024-03-13T13:56:00.198Z,28.60
2024-03-13T13:58:27.121Z,30.07
2024-03-13T14:00:55.259Z,31.60
2024-03-13T14:03:24.512Z,30.40
2024-03-13T14:05:51.961Z,29.30
2024-03-13T14:08:22.299Z,33.57
2024-03-13T14:10:56.741Z,34.70
2024-03-13T14:13:25.131Z,27.93
2024-03-13T14:15:51.693Z,29.23
2024-03-13T14:18:18.390Z,33.83
2024-03-13T14:20:45.153Z,31.97
2024-03-13T14:23:13.443Z,31.63
2024-03-13T14:25:40.291Z,31.27
2024-03-13T14:28:10.472Z,34.93
2024-03-13T14:30:39.762Z,33.87
2024-03-13T14:33:06.898Z,32.27
2024-03-13T14:35:33.398Z,35.30
2024-03-13T14:38:00.188Z,30.17
2024-03-13T14:40:27.828Z,30.27
2024-03-13T14:42:54.712Z,27.23
2024-03-13T14:45:22.169Z,32.00
2024-03-13T14:47:49.683Z,28.33
2024-03-13T14:50:17.633Z,27.30
2024-03-13T14:52:54.533Z,29.07
2024-03-13T14:55:27.142Z,27.80
2024-03-13T14:57:54.125Z,29.07
2024-03-13T15:00:20.607Z,28.23
2024-03-13T15:02:47.473Z,37.63
2024-03-13T15:05:13.975Z,37.77
2024-03-13T15:07:40.605Z,55.90
2024-03-13T15:10:07.216Z,54.50
2024-03-13T15:12:34.146Z,41.77
2024-03-13T15:15:00.764Z,42.23
2024-03-13T15:17:34.302Z,32.53
2024-03-13T15:20:00.727Z,45.30
2024-03-13T15:22:29.143Z,40.30
2024-03-13T15:24:56.177Z,36.97
2024-03-13T15:27:23.130Z,44.53
2024-03-13T15:29:49.721Z,37.27
2024-03-13T15:32:17.132Z,34.57
2024-03-13T15:34:43.649Z,31.83
2024-03-13T15:37:11.392Z,36.23
2024-03-13T15:39:38.054Z,32.77
2024-03-13T15:42:04.975Z,34.13
2024-03-13T15:44:32.480Z,40.60
2024-03-13T15:46:59.960Z,55.20
2024-03-13T15:49:26.367Z,41.07
2024-03-13T15:51:53.110Z,39.90
2024-03-13T15:54:19.894Z,35.80
2024-03-13T15:56:47.310Z,34.37
2024-03-13T15:59:14.937Z,31.50
2024-03-13T16:01:41.836Z,31.60
2024-03-13T16:04:08.299Z,55.83
2024-03-13T16:06:35.638Z,213.10
2024-03-13T16:09:11.591Z,77.13
2024-03-13T16:11:39.356Z,44.70
2024-03-13T16:14:09.147Z,41.20
2024-03-13T16:16:35.925Z,35.30
2024-03-13T16:19:05.839Z,34.87
2024-03-13T16:21:33.126Z,30.57
2024-03-13T16:23:59.538Z,33.00
2024-03-13T16:26:26.317Z,32.77
2024-03-13T16:28:54.415Z,28.13
2024-03-13T16:31:22.410Z,34.83
2024-03-13T16:33:49.736Z,34.27
2024-03-13T16:36:16.517Z,31.60
2024-03-13T16:38:42.896Z,31.13
2024-03-13T16:41:12.187Z,30.77
2024-03-13T16:43:38.795Z,31.80
2024-03-13T16:46:05.628Z,29.03
2024-03-13T16:48:34.967Z,34.07
2024-03-13T16:51:05.734Z,160.03
2024-03-13T16:53:36.033Z,141.03
2024-03-13T16:56:03.142Z,89.73
2024-03-13T16:58:29.829Z,65.67
2024-03-13T17:00:56.817Z,141.57
2024-03-13T17:03:23.648Z,265.50
2024-03-13T17:05:51.453Z,303.87
2024-03-13T17:08:18.172Z,190.27
2024-03-13T17:10:47.036Z,305.00
2024-03-13T17:13:14.573Z,191.77
2024-03-13T17:15:44.851Z,156.47
2024-03-13T17:18:11.813Z,149.93
2024-03-13T17:20:38.715Z,79.47
2024-03-13T17:23:05.141Z,45.73
2024-03-13T17:25:31.887Z,44.07
2024-03-13T17:27:58.589Z,41.03
2024-03-13T17:30:25.585Z,40.80
2024-03-13T17:32:53.156Z,39.93
2024-03-13T17:35:20.289Z,33.73
2024-03-13T17:37:49.494Z,32.13
2024-03-13T17:40:18.969Z,37.17
2024-03-13T17:42:46.853Z,37.43
2024-03-13T17:45:17.957Z,38.20
2024-03-13T17:47:44.953Z,33.80
2024-03-13T17:50:12.511Z,34.20
2024-03-13T17:52:39.037Z,33.63
2024-03-13T17:55:06.908Z,40.63
2024-03-13T17:57:33.594Z,37.87
2024-03-13T18:00:00.844Z,42.67
2024-03-13T18:02:28.355Z,39.23
2024-03-13T18:04:55.356Z,54.37
2024-03-13T18:07:25.618Z,58.70
2024-03-13T18:09:52.533Z,66.60
2024-03-13T18:12:19.177Z,68.13
2024-03-13T18:14:46.933Z,50.60
2024-03-13T18:17:14.140Z,40.57
2024-03-13T18:19:41.036Z,42.03
2024-03-13T18:22:07.998Z,41.23
2024-03-13T18:24:36.118Z,42.17
2024-03-13T18:27:03.116Z,37.83
2024-03-13T18:29:30.273Z,39.67
2024-03-13T18:31:58.521Z,47.13
2024-03-13T18:34:25.657Z,47.43
2024-03-13T18:36:52.374Z,77.70
2024-03-13T18:39:20.295Z,228.90
2024-03-13T18:41:47.653Z,112.10
2024-03-13T18:44:15.289Z,117.90
2024-03-13T18:46:42.150Z,70.63
2024-03-13T18:49:11.231Z,75.73
2024-03-13T18:51:38.474Z,59.30
2024-03-13T18:54:06.350Z,52.60
2024-03-13T18:56:33.099Z,40.70
2024-03-13T18:59:01.701Z,39.57
2024-03-13T19:01:28.152Z,43.67
2024-03-13T19:03:55.098Z,48.17
2024-03-13T19:06:24.091Z,41.73
2024-03-13T19:08:51.539Z,42.20
2024-03-13T19:11:19.167Z,43.90
2024-03-13T19:13:46.387Z,39.67
2024-03-13T19:16:12.854Z,41.47
2024-03-13T19:18:40.048Z,45.87
2024-03-13T19:21:06.937Z,42.23
2024-03-13T19:23:34.217Z,43.67
2024-03-13T19:26:01.658Z,43.30
2024-03-13T19:28:28.987Z,43.17
2024-03-13T19:30:56.411Z,55.80
2024-03-13T19:33:23.715Z,55.00
2024-03-13T19:35:50.267Z,54.03
2024-03-13T19:38:17.745Z,76.20
2024-03-13T19:40:44.873Z,69.17
2024-03-13T19:43:11.927Z,84.00
2024-03-13T19:45:38.735Z,90.03
2024-03-13T19:48:06.854Z,71.57
2024-03-13T19:50:34.988Z,78.93
2024-03-13T19:53:01.996Z,74.07
2024-03-13T19:55:28.537Z,83.87
2024-03-13T19:57:57.521Z,82.33
2024-03-13T20:00:24.735Z,62.70
2024-03-13T20:02:51.732Z,39.37
2024-03-13T20:05:18.531Z,38.93
2024-03-13T20:07:45.641Z,37.17
2024-03-13T20:10:12.119Z,38.00
2024-03-13T20:12:40.435Z,35.87
2024-03-13T20:15:07.710Z,36.53
2024-03-13T20:17:37.265Z,99.47
2024-03-13T20:20:06.157Z,105.50
2024-03-13T20:22:34.659Z,112.63
2024-03-13T20:25:01.240Z,184.67
2024-03-13T20:27:28.288Z,107.40
2024-03-13T20:29:55.385Z,59.90
2024-03-13T20:32:22.726Z,52.60
2024-03-13T20:34:49.295Z,47.37
2024-03-13T20:37:17.320Z,50.20
2024-03-13T20:39:46.811Z,62.33
2024-03-13T20:42:13.601Z,70.07
2024-03-13T20:44:40.026Z,79.37
2024-03-13T20:47:07.149Z,78.63
2024-03-13T20:49:33.632Z,67.50
2024-03-13T20:52:00.456Z,68.87
2024-03-13T20:54:27.201Z,80.43
2024-03-13T20:57:00.056Z,63.20
2024-03-13T20:59:28.230Z,56.83
2024-03-13T21:01:55.399Z,45.70
2024-03-13T21:04:22.141Z,46.47
2024-03-13T21:06:49.712Z,47.43
2024-03-13T21:09:19.596Z,46.63
2024-03-13T21:11:49.272Z,40.23
2024-03-13T21:14:18.251Z,56.00
2024-03-13T21:16:46.313Z,63.90
2024-03-13T21:19:12.918Z,55.57
2024-03-13T21:21:39.955Z,49.90
2024-03-13T21:24:07.255Z,104.23
2024-03-13T21:26:34.256Z,90.70
2024-03-13T21:29:01.230Z,71.23
2024-03-13T21:31:29.542Z,58.80
2024-03-13T21:33:58.027Z,61.50
2024-03-13T21:36:26.564Z,58.23
2024-03-13T21:38:53.125Z,50.73
2024-03-13T21:41:22.832Z,51.53
2024-03-13T21:43:52.661Z,49.27
2024-03-13T21:46:19.657Z,46.63
2024-03-13T21:48:46.679Z,54.63
2024-03-13T21:51:16.515Z,52.80
2024-03-13T21:53:43.188Z,46.37
2024-03-13T21:56:13.210Z,44.13
2024-03-13T21:58:40.147Z,49.20
2024-03-13T22:01:09.740Z,47.50
2024-03-13T22:03:36.450Z,49.10
2024-03-13T22:06:03.942Z,49.37
2024-03-13T22:08:30.933Z,50.80
2024-03-13T22:11:01.226Z,59.60
2024-03-13T22:13:28.170Z,88.40
2024-03-13T22:15:56.441Z,86.30
2024-03-13T22:18:22.985Z,90.07
2024-03-13T22:20:51.035Z,149.40
2024-03-13T22:23:17.594Z,345.27
2024-03-13T22:25:44.518Z,341.90
2024-03-13T22:28:11.325Z,181.03
2024-03-13T22:30:38.168Z,107.90
2024-03-13T22:33:05.079Z,182.60
2024-03-13T22:35:32.142Z,80.63
2024-03-13T22:37:58.660Z,138.83
2024-03-13T22:40:25.527Z,108.47
2024-03-13T22:42:55.931Z,84.37
2024-03-13T22:45:22.886Z,86.13
2024-03-13T22:47:49.465Z,75.90
2024-03-13T22:50:16.339Z,68.40
2024-03-13T22:52:43.558Z,77.13
2024-03-13T22:55:10.904Z,137.07
2024-03-13T22:57:37.867Z,80.53
2024-03-13T23:00:17.963Z,87.20
2024-03-13T23:02:45.839Z,77.83
2024-03-13T23:05:13.845Z,65.83
2024-03-13T23:07:41.036Z,65.23
2024-03-13T23:10:08.350Z,68.80
2024-03-13T23:12:34.686Z,76.07
2024-03-13T23:15:01.528Z,80.50
2024-03-13T23:17:29.585Z,131.40
2024-03-13T23:19:56.806Z,114.30
2024-03-13T23:22:24.054Z,87.77
2024-03-13T23:24:57.242Z,71.43
2024-03-13T23:27:23.737Z,59.90
2024-03-13T23:29:50.656Z,60.37
2024-03-13T23:32:17.557Z,94.23
2024-03-13T23:34:44.847Z,81.53
2024-03-13T23:37:12.225Z,62.67
2024-03-13T23:39:41.683Z,71.27
2024-03-13T23:42:09.328Z,79.60
2024-03-13T23:44:36.413Z,80.97
2024-03-13T23:47:05.385Z,101.70
2024-03-13T23:49:32.482Z,170.93
2024-03-13T23:51:59.418Z,97.33
2024-03-13T23:54:26.227Z,80.70
2024-03-13T23:56:53.119Z,79.70
2024-03-13T23:59:20.516Z,86.13
